Terminal Aerodrome Forecast
Issued by NWS

Home | Current Version | Previous Version | Graphics & Text | Print | Product List | Glossary On
Versions: 1 2 3 4 5 6 7 8 9 10 11 12
000
FTUS43 KICT 041737
TAFSLN
TAF
KSLN 041737Z 0418/0518 27010KT P6SM SKC
     FM050000 34005KT P6SM SKC
     FM050400 VRB03KT P6SM SKC
     FM051100 12005KT P6SM BKN200=

USA.gov is the U.S. government's official web portal to all federal, state and local government web resources and services.